NDF19D EDDM-EDDH
Flight info
| Callsign | NDF19D |
|---|---|
| Flight time | 1h 7m |
| Altitude | 34000 |
| Route | INPUD2N/26R INPUD Y102 UPALA M726 NARUS DCT ABGUS DCT DIRBO T902 RARUP RARUP6A |
| Aircraft | A320/M-SDE3FGHIRWY/LB1 |
Departure
| Time | 2026-05-07 14:15 |
|---|---|
| Airport | Munich Airport (EDDM) |
Arrival
| Time | 2026-05-07 15:23 |
|---|---|
| Airport | Hamburg Helmut Schmidt Airport (EDDH) |
| Time | Latitude | Longitude | Altitude | Speed | Heading |
|---|---|---|---|---|---|
| 2026-05-07 13:07 | 48.35620 | 11.79720 | 1476 ft | 0 kts | 83° |
| 2026-05-07 14:00 | 48.35619 | 11.79702 | 1477 ft | 4 kts | 83° |
| 2026-05-07 14:01 | 48.35615 | 11.79661 | 1475 ft | 4 kts | 79° |
| 2026-05-07 14:01 | 48.35609 | 11.79622 | 1478 ft | 4 kts | 73° |
| 2026-05-07 14:01 | 48.35600 | 11.79585 | 1471 ft | 4 kts | 52° |
| 2026-05-07 14:01 | 48.35584 | 11.79568 | 1473 ft | 1 kts | 354° |
| 2026-05-07 14:02 | 48.35583 | 11.79568 | 1473 ft | 0 kts | 353° |
| 2026-05-07 14:08 | 48.35594 | 11.79566 | 1471 ft | 4 kts | 352° |
| 2026-05-07 14:08 | 48.35647 | 11.79556 | 1479 ft | 10 kts | 353° |
| 2026-05-07 14:08 | 48.35719 | 11.79542 | 1485 ft | 11 kts | 353° |
| 2026-05-07 14:09 | 48.35801 | 11.79528 | 1480 ft | 13 kts | 354° |
| 2026-05-07 14:09 | 48.35894 | 11.79513 | 1485 ft | 14 kts | 354° |
| 2026-05-07 14:09 | 48.35970 | 11.79498 | 1516 ft | 383 kts | 349° |
| 2026-05-07 14:09 | 48.36057 | 11.79474 | 1485 ft | 2 kts | 353° |
| 2026-05-07 14:10 | 48.36090 | 11.79482 | 1485 ft | 7 kts | 17° |
| 2026-05-07 14:10 | 48.36113 | 11.79569 | 1485 ft | 12 kts | 86° |
| 2026-05-07 14:10 | 48.36123 | 11.79693 | 1474 ft | 11 kts | 83° |
| 2026-05-07 14:10 | 48.36130 | 11.79801 | 1485 ft | 10 kts | 85° |
| 2026-05-07 14:11 | 48.36137 | 11.79901 | 1473 ft | 9 kts | 83° |
| 2026-05-07 14:11 | 48.36146 | 11.80013 | 1485 ft | 14 kts | 83° |
| 2026-05-07 14:11 | 48.36156 | 11.80148 | 1485 ft | 12 kts | 84° |
| 2026-05-07 14:11 | 48.36165 | 11.80264 | 1481 ft | 10 kts | 83° |
| 2026-05-07 14:12 | 48.36176 | 11.80405 | 1485 ft | 17 kts | 83° |
| 2026-05-07 14:12 | 48.36193 | 11.80608 | 1480 ft | 22 kts | 82° |
| 2026-05-07 14:12 | 48.36212 | 11.80850 | 1485 ft | 24 kts | 83° |
| 2026-05-07 14:12 | 48.36231 | 11.81100 | 1485 ft | 20 kts | 83° |
| 2026-05-07 14:13 | 48.36241 | 11.81240 | 1480 ft | 11 kts | 82° |
| 2026-05-07 14:13 | 48.36288 | 11.81281 | 1485 ft | 9 kts | 354° |
| 2026-05-07 14:13 | 48.36359 | 11.81267 | 1485 ft | 11 kts | 349° |
| 2026-05-07 14:13 | 48.36426 | 11.81163 | 1476 ft | 18 kts | 296° |
| 2026-05-07 14:14 | 48.36476 | 11.80983 | 1481 ft | 19 kts | 293° |
| 2026-05-07 14:14 | 48.36529 | 11.80799 | 1477 ft | 19 kts | 294° |
| 2026-05-07 14:14 | 48.36570 | 11.80647 | 1474 ft | 14 kts | 290° |
| 2026-05-07 14:14 | 48.36567 | 11.80532 | 1485 ft | 12 kts | 263° |
| 2026-05-07 14:15 | 48.36543 | 11.80224 | 1485 ft | 61 kts | 263° |
| 2026-05-07 14:15 | 48.36467 | 11.79260 | 1485 ft | 123 kts | 264° |
| 2026-05-07 14:15 | 48.36343 | 11.77732 | 1583 ft | 163 kts | 265° |
| 2026-05-07 14:15 | 48.36200 | 11.76058 | 2301 ft | 161 kts | 266° |
| 2026-05-07 14:16 | 48.36077 | 11.74388 | 3078 ft | 160 kts | 266° |
| 2026-05-07 14:16 | 48.35946 | 11.72626 | 3467 ft | 180 kts | 266° |
| 2026-05-07 14:16 | 48.35808 | 11.70653 | 3788 ft | 200 kts | 266° |
| 2026-05-07 14:16 | 48.35661 | 11.68457 | 4063 ft | 225 kts | 269° |
| 2026-05-07 14:17 | 48.36049 | 11.66241 | 4939 ft | 223 kts | 304° |
| 2026-05-07 14:17 | 48.37303 | 11.64780 | 5508 ft | 245 kts | 336° |
| 2026-05-07 14:17 | 48.39061 | 11.64219 | 6030 ft | 266 kts | 348° |
| 2026-05-07 14:17 | 48.40919 | 11.63839 | 6806 ft | 272 kts | 350° |
| 2026-05-07 14:18 | 48.42809 | 11.63491 | 7655 ft | 275 kts | 349° |
| 2026-05-07 14:18 | 48.44717 | 11.63116 | 8485 ft | 279 kts | 348° |
| 2026-05-07 14:18 | 48.46648 | 11.62680 | 9312 ft | 282 kts | 347° |
| 2026-05-07 14:18 | 48.48607 | 11.62186 | 10119 ft | 286 kts | 347° |
| 2026-05-07 14:19 | 48.50576 | 11.61646 | 10891 ft | 289 kts | 346° |
| 2026-05-07 14:19 | 48.52567 | 11.61076 | 11669 ft | 292 kts | 346° |
| 2026-05-07 14:19 | 48.54574 | 11.60488 | 12426 ft | 295 kts | 345° |
| 2026-05-07 14:19 | 48.56597 | 11.59877 | 13172 ft | 298 kts | 343° |
| 2026-05-07 14:20 | 48.58593 | 11.58882 | 13632 ft | 310 kts | 336° |
| 2026-05-07 14:20 | 48.60684 | 11.57673 | 13794 ft | 333 kts | 336° |
| 2026-05-07 14:20 | 48.62886 | 11.56381 | 14158 ft | 345 kts | 336° |
| 2026-05-07 14:20 | 48.65141 | 11.55062 | 14735 ft | 349 kts | 336° |
| 2026-05-07 14:21 | 48.67403 | 11.53742 | 15358 ft | 353 kts | 336° |
| 2026-05-07 14:21 | 48.69699 | 11.52406 | 15994 ft | 356 kts | 336° |
| 2026-05-07 14:21 | 48.72022 | 11.51060 | 16622 ft | 359 kts | 336° |
| 2026-05-07 14:21 | 48.74364 | 11.49705 | 17262 ft | 361 kts | 336° |
| 2026-05-07 14:22 | 48.76719 | 11.48342 | 17902 ft | 364 kts | 336° |
| 2026-05-07 14:22 | 48.79100 | 11.46964 | 18488 ft | 367 kts | 336° |
| 2026-05-07 14:22 | 48.81496 | 11.45578 | 19017 ft | 370 kts | 336° |
| 2026-05-07 14:22 | 48.83909 | 11.44182 | 19547 ft | 373 kts | 336° |
| 2026-05-07 14:23 | 48.86340 | 11.42769 | 20103 ft | 374 kts | 336° |
| 2026-05-07 14:23 | 48.88779 | 11.41347 | 20657 ft | 376 kts | 336° |
| 2026-05-07 14:23 | 48.91225 | 11.39915 | 21154 ft | 378 kts | 336° |
| 2026-05-07 14:23 | 48.93662 | 11.38488 | 21654 ft | 381 kts | 336° |
| 2026-05-07 14:24 | 48.96139 | 11.37034 | 22151 ft | 383 kts | 336° |
| 2026-05-07 14:24 | 48.98673 | 11.35548 | 22660 ft | 386 kts | 336° |
| 2026-05-07 14:24 | 49.01188 | 11.34075 | 23139 ft | 389 kts | 336° |
| 2026-05-07 14:24 | 49.03690 | 11.32609 | 23600 ft | 391 kts | 336° |
| 2026-05-07 14:25 | 49.06235 | 11.31119 | 24000 ft | 394 kts | 336° |
| 2026-05-07 14:25 | 49.08797 | 11.29617 | 24401 ft | 396 kts | 336° |
| 2026-05-07 14:25 | 49.11369 | 11.28104 | 24799 ft | 398 kts | 336° |
| 2026-05-07 14:25 | 49.13956 | 11.26576 | 25194 ft | 399 kts | 336° |
| 2026-05-07 14:26 | 49.16558 | 11.25038 | 25579 ft | 401 kts | 336° |
| 2026-05-07 14:26 | 49.19173 | 11.23519 | 25953 ft | 404 kts | 339° |
| 2026-05-07 14:26 | 49.21920 | 11.22474 | 26321 ft | 409 kts | 349° |
| 2026-05-07 14:26 | 49.24772 | 11.22146 | 26673 ft | 414 kts | 358° |
| 2026-05-07 14:27 | 49.27664 | 11.22186 | 27032 ft | 416 kts | 358° |
| 2026-05-07 14:27 | 49.30572 | 11.22222 | 27399 ft | 418 kts | 358° |
| 2026-05-07 14:27 | 49.33485 | 11.22249 | 27757 ft | 420 kts | 358° |
| 2026-05-07 14:27 | 49.36420 | 11.22269 | 28103 ft | 422 kts | 358° |
| 2026-05-07 14:28 | 49.39348 | 11.22285 | 28456 ft | 424 kts | 358° |
| 2026-05-07 14:28 | 49.42325 | 11.22301 | 28799 ft | 427 kts | 358° |
| 2026-05-07 14:28 | 49.45293 | 11.22321 | 29232 ft | 426 kts | 0° |
| 2026-05-07 14:28 | 49.48255 | 11.22347 | 29572 ft | 427 kts | 0° |
| 2026-05-07 14:29 | 49.51192 | 11.22373 | 29893 ft | 428 kts | 0° |
| 2026-05-07 14:29 | 49.54177 | 11.22402 | 30203 ft | 430 kts | 0° |
| 2026-05-07 14:29 | 49.57174 | 11.22427 | 30417 ft | 432 kts | 0° |
| 2026-05-07 14:29 | 49.60194 | 11.22440 | 30635 ft | 435 kts | 360° |
| 2026-05-07 14:30 | 49.63228 | 11.22442 | 30894 ft | 436 kts | 360° |
| 2026-05-07 14:30 | 49.66283 | 11.22439 | 31079 ft | 439 kts | 0° |
| 2026-05-07 14:30 | 49.69343 | 11.22438 | 31342 ft | 440 kts | 360° |
| 2026-05-07 14:30 | 49.72400 | 11.22441 | 31678 ft | 439 kts | 359° |
| 2026-05-07 14:31 | 49.75456 | 11.22451 | 31890 ft | 442 kts | 360° |
| 2026-05-07 14:31 | 49.78533 | 11.22460 | 32138 ft | 443 kts | 359° |
| 2026-05-07 14:31 | 49.81611 | 11.22478 | 32411 ft | 444 kts | 359° |
| 2026-05-07 14:31 | 49.84668 | 11.22502 | 32662 ft | 445 kts | 359° |
| 2026-05-07 14:32 | 49.87774 | 11.22522 | 32939 ft | 446 kts | 359° |
| 2026-05-07 14:32 | 49.90887 | 11.22539 | 33244 ft | 447 kts | 359° |
| 2026-05-07 14:32 | 49.93993 | 11.22557 | 33518 ft | 448 kts | 358° |
| 2026-05-07 14:32 | 49.96878 | 11.22549 | 33753 ft | 448 kts | 358° |
| 2026-05-07 14:33 | 49.99954 | 11.22550 | 33969 ft | 450 kts | 359° |
| 2026-05-07 14:33 | 50.06169 | 11.22611 | 34019 ft | 444 kts | 358° |
| 2026-05-07 14:34 | 50.12256 | 11.22664 | 34026 ft | 443 kts | 359° |
| 2026-05-07 14:34 | 50.18379 | 11.22697 | 34018 ft | 442 kts | 359° |
| 2026-05-07 14:35 | 50.24537 | 11.22732 | 34023 ft | 443 kts | 359° |
| 2026-05-07 14:35 | 50.30697 | 11.22771 | 34024 ft | 443 kts | 359° |
| 2026-05-07 14:36 | 50.36855 | 11.22693 | 34028 ft | 442 kts | 354° |
| 2026-05-07 14:36 | 50.42984 | 11.21766 | 34029 ft | 442 kts | 353° |
| 2026-05-07 14:37 | 50.49108 | 11.20837 | 34029 ft | 442 kts | 353° |
| 2026-05-07 14:37 | 50.58297 | 11.19453 | 34039 ft | 441 kts | 353° |
| 2026-05-07 14:38 | 50.64364 | 11.18531 | 34049 ft | 441 kts | 353° |
| 2026-05-07 14:38 | 50.70480 | 11.17668 | 34051 ft | 441 kts | 354° |
| 2026-05-07 14:39 | 50.76600 | 11.17052 | 34051 ft | 440 kts | 355° |
| 2026-05-07 14:39 | 50.82717 | 11.16488 | 34057 ft | 440 kts | 356° |
| 2026-05-07 14:40 | 50.87797 | 11.15981 | 34055 ft | 440 kts | 355° |
| 2026-05-07 14:40 | 50.93902 | 11.15336 | 34052 ft | 440 kts | 355° |
| 2026-05-07 14:41 | 51.00010 | 11.14683 | 34039 ft | 439 kts | 355° |
| 2026-05-07 14:41 | 51.06109 | 11.14031 | 34041 ft | 439 kts | 356° |
| 2026-05-07 14:42 | 51.12218 | 11.13382 | 34048 ft | 440 kts | 355° |
| 2026-05-07 14:42 | 51.18336 | 11.12727 | 34048 ft | 440 kts | 355° |
| 2026-05-07 14:43 | 51.24405 | 11.12083 | 34058 ft | 440 kts | 355° |
| 2026-05-07 14:43 | 51.30521 | 11.11442 | 34067 ft | 441 kts | 356° |
| 2026-05-07 14:44 | 51.36639 | 11.10794 | 34066 ft | 441 kts | 356° |
| 2026-05-07 14:44 | 51.42763 | 11.10135 | 34067 ft | 440 kts | 355° |
| 2026-05-07 14:45 | 51.48885 | 11.09459 | 34072 ft | 440 kts | 355° |
| 2026-05-07 14:45 | 51.54991 | 11.08793 | 34074 ft | 440 kts | 355° |
| 2026-05-07 14:46 | 51.61112 | 11.08125 | 34064 ft | 441 kts | 356° |
| 2026-05-07 14:46 | 51.67230 | 11.07470 | 34065 ft | 441 kts | 356° |
| 2026-05-07 14:47 | 51.73356 | 11.06805 | 34070 ft | 441 kts | 355° |
| 2026-05-07 14:47 | 51.79473 | 11.06134 | 34082 ft | 440 kts | 355° |
| 2026-05-07 14:48 | 51.85584 | 11.05460 | 34082 ft | 440 kts | 355° |
| 2026-05-07 14:48 | 51.91637 | 11.04519 | 34082 ft | 440 kts | 352° |
| 2026-05-07 14:49 | 51.97696 | 11.03134 | 34085 ft | 440 kts | 351° |
| 2026-05-07 14:49 | 52.03752 | 11.01704 | 34090 ft | 440 kts | 352° |
| 2026-05-07 14:50 | 52.09818 | 11.00377 | 34087 ft | 439 kts | 352° |
| 2026-05-07 14:50 | 52.15880 | 10.99103 | 33672 ft | 439 kts | 352° |
| 2026-05-07 14:51 | 52.18895 | 10.98467 | 33116 ft | 435 kts | 352° |
| 2026-05-07 14:51 | 52.21884 | 10.97832 | 32583 ft | 430 kts | 352° |
| 2026-05-07 14:51 | 52.24832 | 10.97200 | 32076 ft | 425 kts | 352° |
| 2026-05-07 14:51 | 52.27758 | 10.96568 | 31571 ft | 421 kts | 352° |
| 2026-05-07 14:52 | 52.30650 | 10.95939 | 31071 ft | 417 kts | 351° |
| 2026-05-07 14:52 | 52.33514 | 10.95317 | 30582 ft | 414 kts | 351° |
| 2026-05-07 14:52 | 52.36360 | 10.94696 | 30122 ft | 409 kts | 351° |
| 2026-05-07 14:52 | 52.39165 | 10.94080 | 29569 ft | 405 kts | 351° |
| 2026-05-07 14:53 | 52.41949 | 10.93470 | 29012 ft | 402 kts | 351° |
| 2026-05-07 14:53 | 52.44675 | 10.92877 | 28469 ft | 398 kts | 351° |
| 2026-05-07 14:53 | 52.47412 | 10.92281 | 27934 ft | 395 kts | 351° |
| 2026-05-07 14:53 | 52.50133 | 10.91690 | 27404 ft | 392 kts | 351° |
| 2026-05-07 14:54 | 52.52825 | 10.91106 | 26882 ft | 389 kts | 351° |
| 2026-05-07 14:54 | 52.55506 | 10.90524 | 26356 ft | 387 kts | 351° |
| 2026-05-07 14:54 | 52.58161 | 10.89943 | 25854 ft | 384 kts | 351° |
| 2026-05-07 14:54 | 52.60800 | 10.89364 | 25353 ft | 381 kts | 351° |
| 2026-05-07 14:55 | 52.63425 | 10.88786 | 24862 ft | 379 kts | 351° |
| 2026-05-07 14:55 | 52.66025 | 10.88212 | 24376 ft | 376 kts | 351° |
| 2026-05-07 14:55 | 52.68611 | 10.87641 | 23905 ft | 374 kts | 351° |
| 2026-05-07 14:55 | 52.71187 | 10.87073 | 23404 ft | 372 kts | 351° |
| 2026-05-07 14:56 | 52.73743 | 10.86511 | 22898 ft | 369 kts | 351° |
| 2026-05-07 14:56 | 52.76276 | 10.85954 | 22412 ft | 366 kts | 351° |
| 2026-05-07 14:56 | 52.78803 | 10.85396 | 21927 ft | 364 kts | 351° |
| 2026-05-07 14:56 | 52.81293 | 10.84848 | 21484 ft | 361 kts | 351° |
| 2026-05-07 14:57 | 52.83782 | 10.84297 | 21036 ft | 358 kts | 351° |
| 2026-05-07 14:57 | 52.86244 | 10.83776 | 20588 ft | 356 kts | 351° |
| 2026-05-07 14:57 | 52.88692 | 10.83279 | 20162 ft | 354 kts | 352° |
| 2026-05-07 14:57 | 52.91123 | 10.82792 | 19751 ft | 351 kts | 352° |
| 2026-05-07 14:58 | 52.93511 | 10.82313 | 19342 ft | 349 kts | 352° |
| 2026-05-07 14:58 | 52.95912 | 10.81831 | 18949 ft | 347 kts | 352° |
| 2026-05-07 14:58 | 52.98314 | 10.81346 | 18647 ft | 346 kts | 351° |
| 2026-05-07 14:58 | 53.00696 | 10.80860 | 18362 ft | 344 kts | 352° |
| 2026-05-07 14:59 | 53.03072 | 10.80372 | 18034 ft | 343 kts | 352° |
| 2026-05-07 14:59 | 53.05432 | 10.79888 | 17708 ft | 341 kts | 352° |
| 2026-05-07 14:59 | 53.07788 | 10.79405 | 17376 ft | 339 kts | 352° |
| 2026-05-07 14:59 | 53.10123 | 10.78925 | 17066 ft | 338 kts | 352° |
| 2026-05-07 15:00 | 53.12450 | 10.78449 | 16753 ft | 336 kts | 352° |
| 2026-05-07 15:00 | 53.14765 | 10.77977 | 16437 ft | 334 kts | 353° |
| 2026-05-07 15:00 | 53.17065 | 10.77507 | 16128 ft | 332 kts | 352° |
| 2026-05-07 15:00 | 53.19354 | 10.77035 | 15822 ft | 331 kts | 352° |
| 2026-05-07 15:01 | 53.21638 | 10.76565 | 15519 ft | 330 kts | 352° |
| 2026-05-07 15:01 | 53.23908 | 10.76096 | 15207 ft | 328 kts | 353° |
| 2026-05-07 15:01 | 53.26169 | 10.75627 | 14922 ft | 327 kts | 352° |
| 2026-05-07 15:01 | 53.28423 | 10.75161 | 14634 ft | 326 kts | 352° |
| 2026-05-07 15:02 | 53.30645 | 10.74703 | 14339 ft | 325 kts | 353° |
| 2026-05-07 15:02 | 53.32884 | 10.74240 | 14052 ft | 324 kts | 353° |
| 2026-05-07 15:02 | 53.35121 | 10.73776 | 13747 ft | 322 kts | 353° |
| 2026-05-07 15:02 | 53.37338 | 10.73316 | 13424 ft | 321 kts | 353° |
| 2026-05-07 15:03 | 53.39547 | 10.72855 | 13098 ft | 319 kts | 353° |
| 2026-05-07 15:03 | 53.41746 | 10.72397 | 12786 ft | 318 kts | 353° |
| 2026-05-07 15:03 | 53.43932 | 10.71941 | 12475 ft | 316 kts | 353° |
| 2026-05-07 15:03 | 53.46108 | 10.71488 | 12162 ft | 315 kts | 353° |
| 2026-05-07 15:04 | 53.48276 | 10.71036 | 11948 ft | 314 kts | 353° |
| 2026-05-07 15:04 | 53.50439 | 10.70585 | 11746 ft | 313 kts | 353° |
| 2026-05-07 15:04 | 53.52597 | 10.70134 | 11545 ft | 312 kts | 353° |
| 2026-05-07 15:04 | 53.54751 | 10.69682 | 11345 ft | 311 kts | 353° |
| 2026-05-07 15:05 | 53.56895 | 10.69232 | 11150 ft | 310 kts | 353° |
| 2026-05-07 15:05 | 53.58985 | 10.68423 | 10949 ft | 308 kts | 336° |
| 2026-05-07 15:05 | 53.60745 | 10.66397 | 10875 ft | 307 kts | 314° |
| 2026-05-07 15:05 | 53.61927 | 10.63469 | 10877 ft | 308 kts | 292° |
| 2026-05-07 15:06 | 53.62399 | 10.59972 | 10881 ft | 309 kts | 271° |
| 2026-05-07 15:06 | 53.62087 | 10.56404 | 10590 ft | 309 kts | 252° |
| 2026-05-07 15:06 | 53.61424 | 10.52964 | 10239 ft | 307 kts | 252° |
| 2026-05-07 15:06 | 53.60763 | 10.49568 | 10013 ft | 300 kts | 252° |
| 2026-05-07 15:07 | 53.60127 | 10.46301 | 9863 ft | 290 kts | 252° |
| 2026-05-07 15:07 | 53.59505 | 10.43084 | 9519 ft | 287 kts | 252° |
| 2026-05-07 15:07 | 53.58889 | 10.39886 | 9130 ft | 286 kts | 252° |
| 2026-05-07 15:07 | 53.58280 | 10.36707 | 8730 ft | 285 kts | 252° |
| 2026-05-07 15:08 | 53.57672 | 10.33551 | 8352 ft | 284 kts | 252° |
| 2026-05-07 15:08 | 53.57074 | 10.30454 | 7911 ft | 285 kts | 252° |
| 2026-05-07 15:08 | 53.56475 | 10.27342 | 7508 ft | 284 kts | 253° |
| 2026-05-07 15:08 | 53.55864 | 10.24166 | 7055 ft | 286 kts | 252° |
| 2026-05-07 15:09 | 53.55251 | 10.20994 | 6719 ft | 283 kts | 252° |
| 2026-05-07 15:09 | 53.54643 | 10.17857 | 6346 ft | 282 kts | 252° |
| 2026-05-07 15:09 | 53.54037 | 10.14736 | 5973 ft | 280 kts | 252° |
| 2026-05-07 15:09 | 53.53434 | 10.11627 | 5545 ft | 279 kts | 252° |
| 2026-05-07 15:10 | 53.52834 | 10.08531 | 5171 ft | 278 kts | 252° |
| 2026-05-07 15:10 | 53.52230 | 10.05435 | 4763 ft | 277 kts | 252° |
| 2026-05-07 15:10 | 53.51635 | 10.02403 | 4458 ft | 273 kts | 252° |
| 2026-05-07 15:10 | 53.51137 | 9.99867 | 4285 ft | 266 kts | 252° |
| 2026-05-07 15:11 | 53.50574 | 9.96997 | 4079 ft | 258 kts | 252° |
| 2026-05-07 15:11 | 53.49883 | 9.94280 | 3878 ft | 250 kts | 238° |
| 2026-05-07 15:11 | 53.48843 | 9.92000 | 3658 ft | 243 kts | 228° |
| 2026-05-07 15:11 | 53.47765 | 9.89841 | 3462 ft | 241 kts | 229° |
| 2026-05-07 15:12 | 53.46688 | 9.87679 | 3258 ft | 240 kts | 229° |
| 2026-05-07 15:12 | 53.45621 | 9.85533 | 3083 ft | 239 kts | 229° |
| 2026-05-07 15:12 | 53.44556 | 9.83398 | 3012 ft | 238 kts | 229° |
| 2026-05-07 15:12 | 53.43490 | 9.81263 | 3004 ft | 238 kts | 229° |
| 2026-05-07 15:13 | 53.42426 | 9.79131 | 2999 ft | 238 kts | 230° |
| 2026-05-07 15:13 | 53.41361 | 9.77000 | 3002 ft | 239 kts | 229° |
| 2026-05-07 15:13 | 53.40292 | 9.74864 | 2997 ft | 239 kts | 229° |
| 2026-05-07 15:13 | 53.39220 | 9.72720 | 3000 ft | 241 kts | 229° |
| 2026-05-07 15:14 | 53.38104 | 9.70474 | 3000 ft | 255 kts | 229° |
| 2026-05-07 15:14 | 53.37256 | 9.67958 | 2997 ft | 238 kts | 257° |
| 2026-05-07 15:14 | 53.37299 | 9.65371 | 2999 ft | 222 kts | 292° |
| 2026-05-07 15:14 | 53.38188 | 9.63223 | 3009 ft | 229 kts | 321° |
| 2026-05-07 15:15 | 53.39448 | 9.61585 | 3005 ft | 229 kts | 333° |
| 2026-05-07 15:15 | 53.40887 | 9.60673 | 2998 ft | 213 kts | 353° |
| 2026-05-07 15:15 | 53.42301 | 9.60564 | 3002 ft | 197 kts | 11° |
| 2026-05-07 15:15 | 53.43589 | 9.61102 | 2894 ft | 187 kts | 25° |
| 2026-05-07 15:16 | 53.44671 | 9.62140 | 2848 ft | 168 kts | 44° |
| 2026-05-07 15:16 | 53.45416 | 9.63490 | 2904 ft | 148 kts | 50° |
| 2026-05-07 15:16 | 53.46076 | 9.64780 | 2973 ft | 144 kts | 51° |
| 2026-05-07 15:16 | 53.46716 | 9.66045 | 2987 ft | 142 kts | 51° |
| 2026-05-07 15:17 | 53.47359 | 9.67324 | 3033 ft | 153 kts | 51° |
| 2026-05-07 15:17 | 53.48082 | 9.68767 | 3005 ft | 166 kts | 51° |
| 2026-05-07 15:17 | 53.48829 | 9.70257 | 3006 ft | 167 kts | 51° |
| 2026-05-07 15:17 | 53.49574 | 9.71746 | 3008 ft | 166 kts | 51° |
| 2026-05-07 15:18 | 53.50316 | 9.73230 | 3009 ft | 166 kts | 51° |
| 2026-05-07 15:18 | 53.51064 | 9.74728 | 3005 ft | 168 kts | 51° |
| 2026-05-07 15:18 | 53.51813 | 9.76228 | 3011 ft | 167 kts | 51° |
| 2026-05-07 15:18 | 53.52557 | 9.77719 | 2909 ft | 166 kts | 51° |
| 2026-05-07 15:19 | 53.53298 | 9.79206 | 2738 ft | 166 kts | 52° |
| 2026-05-07 15:19 | 53.54044 | 9.80702 | 2524 ft | 167 kts | 51° |
| 2026-05-07 15:19 | 53.54782 | 9.82184 | 2293 ft | 165 kts | 52° |
| 2026-05-07 15:19 | 53.55516 | 9.83658 | 2081 ft | 163 kts | 51° |
| 2026-05-07 15:20 | 53.56245 | 9.85125 | 1850 ft | 163 kts | 52° |
| 2026-05-07 15:20 | 53.56972 | 9.86586 | 1628 ft | 163 kts | 51° |
| 2026-05-07 15:20 | 53.57668 | 9.87986 | 1431 ft | 147 kts | 52° |
| 2026-05-07 15:20 | 53.58299 | 9.89256 | 1213 ft | 136 kts | 52° |
| 2026-05-07 15:21 | 53.58895 | 9.90457 | 1032 ft | 133 kts | 51° |
| 2026-05-07 15:21 | 53.59488 | 9.91648 | 846 ft | 133 kts | 50° |
| 2026-05-07 15:21 | 53.60087 | 9.92852 | 640 ft | 135 kts | 50° |
| 2026-05-07 15:21 | 53.60681 | 9.94056 | 462 ft | 134 kts | 51° |
| 2026-05-07 15:22 | 53.61278 | 9.95278 | 323 ft | 134 kts | 50° |
| 2026-05-07 15:22 | 53.61871 | 9.96468 | 124 ft | 132 kts | 50° |
| 2026-05-07 15:22 | 53.62433 | 9.97601 | 50 ft | 113 kts | 51° |
| 2026-05-07 15:22 | 53.62837 | 9.98419 | 53 ft | 66 kts | 50° |
| 2026-05-07 15:23 | 53.63038 | 9.98825 | 51 ft | 32 kts | 52° |
| 2026-05-07 15:23 | 53.63089 | 9.99070 | 52 ft | 19 kts | 87° |
| 2026-05-07 15:23 | 53.63084 | 9.99233 | 51 ft | 6 kts | 94° |
| 2026-05-07 15:23 | 53.63083 | 9.99256 | 51 ft | 0 kts | 93° |
| 2026-05-07 15:24 | 53.63083 | 9.99260 | 49 ft | 3 kts | 93° |
| 2026-05-07 15:24 | 53.63085 | 9.99353 | 49 ft | 10 kts | 76° |
| 2026-05-07 15:25 | 53.63119 | 9.99454 | 52 ft | 11 kts | 56° |
| 2026-05-07 15:25 | 53.63180 | 9.99588 | 51 ft | 16 kts | 49° |
| 2026-05-07 15:25 | 53.63260 | 9.99735 | 51 ft | 18 kts | 43° |
| 2026-05-07 15:25 | 53.63342 | 9.99889 | 51 ft | 17 kts | 51° |
| 2026-05-07 15:26 | 53.63413 | 10.00033 | 51 ft | 13 kts | 50° |
| 2026-05-07 15:26 | 53.63412 | 10.00165 | 51 ft | 12 kts | 133° |
| 2026-05-07 15:26 | 53.63333 | 10.00198 | 49 ft | 12 kts | 178° |
| 2026-05-07 15:26 | 53.63260 | 10.00206 | 49 ft | 8 kts | 175° |
| 2026-05-07 15:27 | 53.63209 | 10.00212 | 51 ft | 7 kts | 176° |
| 2026-05-07 15:27 | 53.63187 | 10.00243 | 51 ft | 4 kts | 94° |
| 2026-05-07 15:27 | 53.63192 | 10.00298 | 51 ft | 4 kts | 84° |
| 2026-05-07 15:27 | 53.63194 | 10.00337 | 51 ft | 3 kts | 86° |
| 2026-05-07 15:28 | 53.63195 | 10.00360 | 51 ft | 4 kts | 86° |
| 2026-05-07 15:28 | 53.63195 | 10.00369 | 51 ft | 0 kts | 86° |